sensor_id;sensor_type;location;lat;lon;timestamp;temperature;humidity
44247;DHT22;29922;0.000;0.000;2022-08-02T00:03:19;19.70;55.40
44247;DHT22;29922;0.000;0.000;2022-08-02T00:08:41;19.70;55.40
44247;DHT22;29922;0.000;0.000;2022-08-02T00:14:02;19.80;55.40
44247;DHT22;29922;0.000;0.000;2022-08-02T00:19:23;19.80;55.50
44247;DHT22;29922;0.000;0.000;2022-08-02T00:24:45;19.70;55.40
44247;DHT22;29922;0.000;0.000;2022-08-02T00:30:06;19.70;55.50
44247;DHT22;29922;0.000;0.000;2022-08-02T00:35:27;19.70;55.50
44247;DHT22;29922;0.000;0.000;2022-08-02T00:40:51;19.80;55.80
44247;DHT22;29922;0.000;0.000;2022-08-02T00:46:12;19.80;55.50
44247;DHT22;29922;0.000;0.000;2022-08-02T00:51:34;19.70;55.60
44247;DHT22;29922;0.000;0.000;2022-08-02T00:56:56;19.80;55.60
44247;DHT22;29922;0.000;0.000;2022-08-02T01:02:16;19.80;55.60
44247;DHT22;29922;0.000;0.000;2022-08-02T01:07:37;19.70;55.60
44247;DHT22;29922;0.000;0.000;2022-08-02T01:12:59;19.70;55.60
44247;DHT22;29922;0.000;0.000;2022-08-02T01:18:24;19.70;55.70
44247;DHT22;29922;0.000;0.000;2022-08-02T01:23:56;19.70;55.80
44247;DHT22;29922;0.000;0.000;2022-08-02T01:29:29;19.70;55.80
44247;DHT22;29922;0.000;0.000;2022-08-02T01:34:55;19.70;55.80
44247;DHT22;29922;0.000;0.000;2022-08-02T01:40:22;19.70;55.90
44247;DHT22;29922;0.000;0.000;2022-08-02T01:45:48;19.70;55.80
44247;DHT22;29922;0.000;0.000;2022-08-02T01:51:12;19.70;55.90
44247;DHT22;29922;0.000;0.000;2022-08-02T01:56:35;19.70;56.00
44247;DHT22;29922;0.000;0.000;2022-08-02T02:01:58;19.70;56.00
44247;DHT22;29922;0.000;0.000;2022-08-02T02:07:20;19.70;56.00
44247;DHT22;29922;0.000;0.000;2022-08-02T02:12:42;19.70;56.20
44247;DHT22;29922;0.000;0.000;2022-08-02T02:18:07;19.70;56.20
44247;DHT22;29922;0.000;0.000;2022-08-02T02:23:28;19.70;56.20
44247;DHT22;29922;0.000;0.000;2022-08-02T02:28:50;19.70;56.20
44247;DHT22;29922;0.000;0.000;2022-08-02T02:34:15;19.70;56.30
44247;DHT22;29922;0.000;0.000;2022-08-02T02:39:38;19.70;56.30
44247;DHT22;29922;0.000;0.000;2022-08-02T02:44:59;19.70;56.30
44247;DHT22;29922;0.000;0.000;2022-08-02T02:50:24;19.70;56.20
44247;DHT22;29922;0.000;0.000;2022-08-02T02:55:46;19.70;56.20
44247;DHT22;29922;0.000;0.000;2022-08-02T03:01:08;19.70;56.30
44247;DHT22;29922;0.000;0.000;2022-08-02T03:06:56;19.70;56.40
44247;DHT22;29922;0.000;0.000;2022-08-02T03:12:17;19.70;56.40
44247;DHT22;29922;0.000;0.000;2022-08-02T03:17:39;19.70;56.40
44247;DHT22;29922;0.000;0.000;2022-08-02T03:23:02;19.70;56.50
44247;DHT22;29922;0.000;0.000;2022-08-02T03:28:23;19.70;56.50
44247;DHT22;29922;0.000;0.000;2022-08-02T03:33:44;19.70;56.50
44247;DHT22;29922;0.000;0.000;2022-08-02T03:39:08;19.70;56.50
44247;DHT22;29922;0.000;0.000;2022-08-02T03:44:30;19.70;56.50
44247;DHT22;29922;0.000;0.000;2022-08-02T03:49:51;19.70;56.50
44247;DHT22;29922;0.000;0.000;2022-08-02T03:55:13;19.70;56.60
44247;DHT22;29922;0.000;0.000;2022-08-02T04:00:34;19.70;56.50
44247;DHT22;29922;0.000;0.000;2022-08-02T04:05:56;19.70;56.50
44247;DHT22;29922;0.000;0.000;2022-08-02T04:11:18;19.60;56.60
44247;DHT22;29922;0.000;0.000;2022-08-02T04:16:52;19.70;56.50
44247;DHT22;29922;0.000;0.000;2022-08-02T04:22:20;19.70;56.70
44247;DHT22;29922;0.000;0.000;2022-08-02T04:27:44;19.70;56.70
44247;DHT22;29922;0.000;0.000;2022-08-02T04:33:06;19.70;56.60
44247;DHT22;29922;0.000;0.000;2022-08-02T04:38:27;19.60;56.60
44247;DHT22;29922;0.000;0.000;2022-08-02T04:43:49;19.60;56.60
44247;DHT22;29922;0.000;0.000;2022-08-02T04:49:11;19.60;56.40
44247;DHT22;29922;0.000;0.000;2022-08-02T04:54:31;19.60;56.70
44247;DHT22;29922;0.000;0.000;2022-08-02T04:59:53;19.60;56.60
44247;DHT22;29922;0.000;0.000;2022-08-02T05:05:15;19.60;56.80
44247;DHT22;29922;0.000;0.000;2022-08-02T05:10:36;19.60;56.70
44247;DHT22;29922;0.000;0.000;2022-08-02T05:15:58;19.60;56.60
44247;DHT22;29922;0.000;0.000;2022-08-02T05:21:21;19.60;56.70
44247;DHT22;29922;0.000;0.000;2022-08-02T05:26:41;19.60;56.60
44247;DHT22;29922;0.000;0.000;2022-08-02T05:32:04;19.60;56.70
44247;DHT22;29922;0.000;0.000;2022-08-02T05:37:25;19.60;56.60
44247;DHT22;29922;0.000;0.000;2022-08-02T05:42:45;19.60;56.60
44247;DHT22;29922;0.000;0.000;2022-08-02T05:48:08;19.60;56.80
44247;DHT22;29922;0.000;0.000;2022-08-02T05:53:35;19.60;56.70
44247;DHT22;29922;0.000;0.000;2022-08-02T05:59:04;19.60;57.30
44247;DHT22;29922;0.000;0.000;2022-08-02T06:04:40;19.60;56.80
44247;DHT22;29922;0.000;0.000;2022-08-02T06:10:05;19.60;56.80
44247;DHT22;29922;0.000;0.000;2022-08-02T06:15:27;19.60;57.40
44247;DHT22;29922;0.000;0.000;2022-08-02T06:20:49;19.60;56.70
44247;DHT22;29922;0.000;0.000;2022-08-02T06:26:11;19.60;56.80
44247;DHT22;29922;0.000;0.000;2022-08-02T06:31:33;19.60;56.70
44247;DHT22;29922;0.000;0.000;2022-08-02T06:37:00;19.60;56.70
44247;DHT22;29922;0.000;0.000;2022-08-02T06:42:35;19.60;56.70
44247;DHT22;29922;0.000;0.000;2022-08-02T06:48:00;19.60;56.80
44247;DHT22;29922;0.000;0.000;2022-08-02T06:53:22;19.60;56.70
44247;DHT22;29922;0.000;0.000;2022-08-02T06:58:42;19.60;57.40
44247;DHT22;29922;0.000;0.000;2022-08-02T07:04:04;19.50;57.20
44247;DHT22;29922;0.000;0.000;2022-08-02T07:09:26;19.60;57.40
44247;DHT22;29922;0.000;0.000;2022-08-02T07:14:47;19.60;57.70
44247;DHT22;29922;0.000;0.000;2022-08-02T07:20:08;19.60;57.80
44247;DHT22;29922;0.000;0.000;2022-08-02T07:25:30;19.60;57.20
44247;DHT22;29922;0.000;0.000;2022-08-02T07:30:50;19.60;57.10
44247;DHT22;29922;0.000;0.000;2022-08-02T07:36:11;19.60;57.10
44247;DHT22;29922;0.000;0.000;2022-08-02T07:41:33;19.60;57.10
44247;DHT22;29922;0.000;0.000;2022-08-02T07:46:53;19.60;56.90
44247;DHT22;29922;0.000;0.000;2022-08-02T07:52:14;19.60;59.40
44247;DHT22;29922;0.000;0.000;2022-08-02T07:57:37;19.50;58.90
44247;DHT22;29922;0.000;0.000;2022-08-02T08:02:58;19.50;59.40
44247;DHT22;29922;0.000;0.000;2022-08-02T08:08:19;19.50;59.30
44247;DHT22;29922;0.000;0.000;2022-08-02T08:13:41;19.50;59.40
44247;DHT22;29922;0.000;0.000;2022-08-02T08:19:02;19.50;59.40
44247;DHT22;29922;0.000;0.000;2022-08-02T08:24:23;19.40;59.30
44247;DHT22;29922;0.000;0.000;2022-08-02T08:29:45;19.50;59.10
44247;DHT22;29922;0.000;0.000;2022-08-02T08:35:06;19.50;58.90
44247;DHT22;29922;0.000;0.000;2022-08-02T08:40:27;19.50;59.00
44247;DHT22;29922;0.000;0.000;2022-08-02T08:45:50;19.50;59.00
44247;DHT22;29922;0.000;0.000;2022-08-02T08:51:14;19.50;58.60
44247;DHT22;29922;0.000;0.000;2022-08-02T08:56:36;19.70;58.80
44247;DHT22;29922;0.000;0.000;2022-08-02T09:02:00;19.60;58.70
44247;DHT22;29922;0.000;0.000;2022-08-02T09:07:21;19.70;58.70
44247;DHT22;29922;0.000;0.000;2022-08-02T09:12:41;19.70;59.00
44247;DHT22;29922;0.000;0.000;2022-08-02T09:18:04;19.60;58.90
44247;DHT22;29922;0.000;0.000;2022-08-02T09:23:26;19.60;59.00
44247;DHT22;29922;0.000;0.000;2022-08-02T09:28:59;19.60;59.20
44247;DHT22;29922;0.000;0.000;2022-08-02T09:34:21;19.60;58.90
44247;DHT22;29922;0.000;0.000;2022-08-02T09:39:43;19.60;58.80
44247;DHT22;29922;0.000;0.000;2022-08-02T09:45:05;19.60;58.70
44247;DHT22;29922;0.000;0.000;2022-08-02T09:50:27;19.60;58.30
44247;DHT22;29922;0.000;0.000;2022-08-02T09:55:54;19.70;58.20
44247;DHT22;29922;0.000;0.000;2022-08-02T10:01:15;19.70;58.10
44247;DHT22;29922;0.000;0.000;2022-08-02T10:06:38;19.70;58.30
44247;DHT22;29922;0.000;0.000;2022-08-02T10:11:59;19.80;58.50
44247;DHT22;29922;0.000;0.000;2022-08-02T10:17:20;19.80;58.60
44247;DHT22;29922;0.000;0.000;2022-08-02T10:22:42;19.80;59.00
44247;DHT22;29922;0.000;0.000;2022-08-02T10:28:04;19.80;58.80
44247;DHT22;29922;0.000;0.000;2022-08-02T10:33:27;19.80;58.70
44247;DHT22;29922;0.000;0.000;2022-08-02T10:38:49;19.80;58.80
44247;DHT22;29922;0.000;0.000;2022-08-02T10:44:24;19.70;58.50
44247;DHT22;29922;0.000;0.000;2022-08-02T10:49:50;19.70;58.40
44247;DHT22;29922;0.000;0.000;2022-08-02T10:55:13;19.70;58.80
44247;DHT22;29922;0.000;0.000;2022-08-02T11:00:34;19.70;58.70
44247;DHT22;29922;0.000;0.000;2022-08-02T11:06:00;19.70;58.70
44247;DHT22;29922;0.000;0.000;2022-08-02T11:11:23;19.70;59.00
44247;DHT22;29922;0.000;0.000;2022-08-02T11:17:12;19.70;59.00
44247;DHT22;29922;0.000;0.000;2022-08-02T11:22:35;19.70;58.90
44247;DHT22;29922;0.000;0.000;2022-08-02T11:27:59;19.60;59.10
44247;DHT22;29922;0.000;0.000;2022-08-02T11:33:30;19.60;58.80
44247;DHT22;29922;0.000;0.000;2022-08-02T11:39:07;19.60;58.90
44247;DHT22;29922;0.000;0.000;2022-08-02T11:44:38;19.60;58.80
44247;DHT22;29922;0.000;0.000;2022-08-02T11:50:04;19.60;58.90
44247;DHT22;29922;0.000;0.000;2022-08-02T11:55:27;19.60;58.70
44247;DHT22;29922;0.000;0.000;2022-08-02T12:00:49;19.60;58.90
44247;DHT22;29922;0.000;0.000;2022-08-02T12:06:12;19.70;58.80
44247;DHT22;29922;0.000;0.000;2022-08-02T12:11:37;19.70;58.40
44247;DHT22;29922;0.000;0.000;2022-08-02T12:16:59;19.80;58.60
44247;DHT22;29922;0.000;0.000;2022-08-02T12:22:39;19.80;58.90
44247;DHT22;29922;0.000;0.000;2022-08-02T12:28:12;19.80;59.00
44247;DHT22;29922;0.000;0.000;2022-08-02T12:33:45;19.80;59.00
44247;DHT22;29922;0.000;0.000;2022-08-02T12:39:12;19.80;58.20
44247;DHT22;29922;0.000;0.000;2022-08-02T12:44:33;19.80;58.40
44247;DHT22;29922;0.000;0.000;2022-08-02T12:50:13;19.80;58.20
44247;DHT22;29922;0.000;0.000;2022-08-02T12:55:35;19.80;58.00
44247;DHT22;29922;0.000;0.000;2022-08-02T13:01:00;19.80;58.10
44247;DHT22;29922;0.000;0.000;2022-08-02T13:06:23;19.80;58.00
44247;DHT22;29922;0.000;0.000;2022-08-02T13:11:44;19.80;58.00
44247;DHT22;29922;0.000;0.000;2022-08-02T13:17:05;19.80;57.90
44247;DHT22;29922;0.000;0.000;2022-08-02T13:22:27;19.90;57.60
44247;DHT22;29922;0.000;0.000;2022-08-02T13:27:47;19.90;57.70
44247;DHT22;29922;0.000;0.000;2022-08-02T13:33:08;19.90;57.70
44247;DHT22;29922;0.000;0.000;2022-08-02T13:38:30;19.90;57.60
44247;DHT22;29922;0.000;0.000;2022-08-02T13:43:51;19.90;57.60
44247;DHT22;29922;0.000;0.000;2022-08-02T13:49:11;19.90;57.60
44247;DHT22;29922;0.000;0.000;2022-08-02T13:54:34;19.90;57.70
44247;DHT22;29922;0.000;0.000;2022-08-02T13:59:55;19.90;57.70
44247;DHT22;29922;0.000;0.000;2022-08-02T14:05:16;20.00;57.70
44247;DHT22;29922;0.000;0.000;2022-08-02T14:10:38;20.00;57.60
44247;DHT22;29922;0.000;0.000;2022-08-02T14:15:58;20.00;57.50
44247;DHT22;29922;0.000;0.000;2022-08-02T14:21:19;20.00;57.40
44247;DHT22;29922;0.000;0.000;2022-08-02T14:26:41;20.00;57.20
44247;DHT22;29922;0.000;0.000;2022-08-02T14:32:02;20.00;57.20
44247;DHT22;29922;0.000;0.000;2022-08-02T14:37:23;20.00;57.20
44247;DHT22;29922;0.000;0.000;2022-08-02T14:42:45;20.10;57.20
44247;DHT22;29922;0.000;0.000;2022-08-02T14:48:06;20.10;57.10
44247;DHT22;29922;0.000;0.000;2022-08-02T14:53:26;20.10;57.00
44247;DHT22;29922;0.000;0.000;2022-08-02T14:58:48;20.10;57.10
44247;DHT22;29922;0.000;0.000;2022-08-02T15:04:08;20.10;57.00
44247;DHT22;29922;0.000;0.000;2022-08-02T15:09:29;20.10;57.10
44247;DHT22;29922;0.000;0.000;2022-08-02T15:14:51;20.00;57.00
44247;DHT22;29922;0.000;0.000;2022-08-02T15:20:11;20.00;56.90
44247;DHT22;29922;0.000;0.000;2022-08-02T15:25:32;20.00;56.90
44247;DHT22;29922;0.000;0.000;2022-08-02T15:30:54;20.00;56.90
44247;DHT22;29922;0.000;0.000;2022-08-02T15:36:14;20.00;56.90
44247;DHT22;29922;0.000;0.000;2022-08-02T15:41:35;20.00;56.90
44247;DHT22;29922;0.000;0.000;2022-08-02T15:46:57;19.90;56.90
44247;DHT22;29922;0.000;0.000;2022-08-02T15:52:17;20.00;56.90
44247;DHT22;29922;0.000;0.000;2022-08-02T15:57:38;20.00;56.80
44247;DHT22;29922;0.000;0.000;2022-08-02T16:03:00;20.00;56.90
44247;DHT22;29922;0.000;0.000;2022-08-02T16:08:21;20.00;56.60
44247;DHT22;29922;0.000;0.000;2022-08-02T16:13:41;20.00;56.40
44247;DHT22;29922;0.000;0.000;2022-08-02T16:19:15;20.00;56.40
44247;DHT22;29922;0.000;0.000;2022-08-02T16:24:36;20.00;56.30
44247;DHT22;29922;0.000;0.000;2022-08-02T16:29:56;20.00;56.30
44247;DHT22;29922;0.000;0.000;2022-08-02T16:35:18;20.00;56.30
44247;DHT22;29922;0.000;0.000;2022-08-02T16:40:39;20.00;56.30
44247;DHT22;29922;0.000;0.000;2022-08-02T16:46:00;20.00;56.40
44247;DHT22;29922;0.000;0.000;2022-08-02T16:51:22;19.90;56.40
44247;DHT22;29922;0.000;0.000;2022-08-02T16:56:44;19.90;56.40
44247;DHT22;29922;0.000;0.000;2022-08-02T17:02:05;19.90;56.40
44247;DHT22;29922;0.000;0.000;2022-08-02T17:07:27;19.90;56.40
44247;DHT22;29922;0.000;0.000;2022-08-02T17:12:48;19.90;56.50
44247;DHT22;29922;0.000;0.000;2022-08-02T17:18:08;19.90;56.40
44247;DHT22;29922;0.000;0.000;2022-08-02T17:23:30;19.90;56.40
44247;DHT22;29922;0.000;0.000;2022-08-02T17:28:50;19.90;56.40
44247;DHT22;29922;0.000;0.000;2022-08-02T17:34:11;19.90;56.30
44247;DHT22;29922;0.000;0.000;2022-08-02T17:39:33;19.90;56.20
44247;DHT22;29922;0.000;0.000;2022-08-02T17:44:55;19.90;56.20
44247;DHT22;29922;0.000;0.000;2022-08-02T17:50:16;19.90;56.20
44247;DHT22;29922;0.000;0.000;2022-08-02T17:55:38;19.90;56.20
44247;DHT22;29922;0.000;0.000;2022-08-02T18:00:59;19.90;56.20
44247;DHT22;29922;0.000;0.000;2022-08-02T18:06:20;19.90;56.10
44247;DHT22;29922;0.000;0.000;2022-08-02T18:11:42;19.90;56.10
44247;DHT22;29922;0.000;0.000;2022-08-02T18:17:03;19.90;56.20
44247;DHT22;29922;0.000;0.000;2022-08-02T18:22:24;19.90;56.10
44247;DHT22;29922;0.000;0.000;2022-08-02T18:27:46;19.90;56.10
44247;DHT22;29922;0.000;0.000;2022-08-02T18:33:07;19.90;56.00
44247;DHT22;29922;0.000;0.000;2022-08-02T18:38:28;19.90;56.00
44247;DHT22;29922;0.000;0.000;2022-08-02T18:43:50;19.90;55.90
44247;DHT22;29922;0.000;0.000;2022-08-02T18:49:11;19.90;55.90
44247;DHT22;29922;0.000;0.000;2022-08-02T18:54:31;19.80;55.70
44247;DHT22;29922;0.000;0.000;2022-08-02T18:59:53;19.80;55.60
44247;DHT22;29922;0.000;0.000;2022-08-02T19:05:14;19.80;56.20
44247;DHT22;29922;0.000;0.000;2022-08-02T19:10:35;19.90;55.10
44247;DHT22;29922;0.000;0.000;2022-08-02T19:15:58;19.90;55.10
44247;DHT22;29922;0.000;0.000;2022-08-02T19:21:19;19.90;55.00
44247;DHT22;29922;0.000;0.000;2022-08-02T19:26:39;19.90;54.30
44247;DHT22;29922;0.000;0.000;2022-08-02T19:32:01;19.90;53.40
44247;DHT22;29922;0.000;0.000;2022-08-02T19:37:22;19.90;52.50
44247;DHT22;29922;0.000;0.000;2022-08-02T19:42:43;19.90;52.60
44247;DHT22;29922;0.000;0.000;2022-08-02T19:48:08;19.80;52.30
44247;DHT22;29922;0.000;0.000;2022-08-02T19:53:32;19.80;52.00
44247;DHT22;29922;0.000;0.000;2022-08-02T19:58:54;19.90;51.70
44247;DHT22;29922;0.000;0.000;2022-08-02T20:04:17;19.80;51.90
44247;DHT22;29922;0.000;0.000;2022-08-02T20:09:37;19.80;51.40
44247;DHT22;29922;0.000;0.000;2022-08-02T20:14:58;19.80;51.60
44247;DHT22;29922;0.000;0.000;2022-08-02T20:20:20;19.80;51.80
44247;DHT22;29922;0.000;0.000;2022-08-02T20:25:40;19.80;51.20
44247;DHT22;29922;0.000;0.000;2022-08-02T20:31:01;19.80;51.30
44247;DHT22;29922;0.000;0.000;2022-08-02T20:36:25;19.80;51.70
44247;DHT22;29922;0.000;0.000;2022-08-02T20:41:46;19.80;51.80
44247;DHT22;29922;0.000;0.000;2022-08-02T20:47:07;19.80;51.80
44247;DHT22;29922;0.000;0.000;2022-08-02T20:52:29;19.80;51.70
44247;DHT22;29922;0.000;0.000;2022-08-02T20:57:50;19.80;51.90
44247;DHT22;29922;0.000;0.000;2022-08-02T21:03:13;19.80;52.20
44247;DHT22;29922;0.000;0.000;2022-08-02T21:08:36;19.80;53.10
44247;DHT22;29922;0.000;0.000;2022-08-02T21:13:57;19.80;52.30
44247;DHT22;29922;0.000;0.000;2022-08-02T21:19:18;19.80;52.50
44247;DHT22;29922;0.000;0.000;2022-08-02T21:24:39;19.70;52.50
44247;DHT22;29922;0.000;0.000;2022-08-02T21:30:00;19.80;52.60
44247;DHT22;29922;0.000;0.000;2022-08-02T21:35:21;19.80;52.60
44247;DHT22;29922;0.000;0.000;2022-08-02T21:40:43;19.70;52.60
44247;DHT22;29922;0.000;0.000;2022-08-02T21:46:03;19.80;52.70
44247;DHT22;29922;0.000;0.000;2022-08-02T21:51:24;19.70;52.70
44247;DHT22;29922;0.000;0.000;2022-08-02T21:56:46;19.70;52.80
44247;DHT22;29922;0.000;0.000;2022-08-02T22:02:06;19.70;52.90
44247;DHT22;29922;0.000;0.000;2022-08-02T22:07:27;19.70;52.90
44247;DHT22;29922;0.000;0.000;2022-08-02T22:12:49;19.70;53.00
44247;DHT22;29922;0.000;0.000;2022-08-02T22:18:09;19.70;53.10
44247;DHT22;29922;0.000;0.000;2022-08-02T22:23:30;19.70;53.20
44247;DHT22;29922;0.000;0.000;2022-08-02T22:28:52;19.70;53.20
44247;DHT22;29922;0.000;0.000;2022-08-02T22:34:13;19.70;53.40
44247;DHT22;29922;0.000;0.000;2022-08-02T22:39:33;19.70;53.50
44247;DHT22;29922;0.000;0.000;2022-08-02T22:44:55;19.70;53.70
44247;DHT22;29922;0.000;0.000;2022-08-02T22:50:15;19.70;53.70
44247;DHT22;29922;0.000;0.000;2022-08-02T22:55:36;19.60;53.70
44247;DHT22;29922;0.000;0.000;2022-08-02T23:00:58;19.70;53.80
44247;DHT22;29922;0.000;0.000;2022-08-02T23:06:18;19.70;53.80
44247;DHT22;29922;0.000;0.000;2022-08-02T23:11:39;19.70;53.80
44247;DHT22;29922;0.000;0.000;2022-08-02T23:17:01;19.70;53.90
44247;DHT22;29922;0.000;0.000;2022-08-02T23:22:39;19.70;54.00
44247;DHT22;29922;0.000;0.000;2022-08-02T23:28:00;19.70;53.90
44247;DHT22;29922;0.000;0.000;2022-08-02T23:33:22;19.70;53.90
44247;DHT22;29922;0.000;0.000;2022-08-02T23:38:43;19.70;53.80
44247;DHT22;29922;0.000;0.000;2022-08-02T23:44:03;19.70;53.80
44247;DHT22;29922;0.000;0.000;2022-08-02T23:49:26;19.70;53.80
44247;DHT22;29922;0.000;0.000;2022-08-02T23:54:47;19.70;54.00
